Time;durP1;ratioP1;P1;durP2;ratioP2;P2;SDS_P1;SDS_P2;PMS_P1;PMS_P2;Temp;Humidity;BMP_temperature;BMP_pressure;BME280_temperature;BME280_humidity;BME280_pressure;Samples;Min_cycle;Max_cycle;Signal;HPM_P1;HPM_P2
2023/06/05 00:00:06;;;;;;;0.77;0.77;;;;;;;;;;5051929;28;20021;-84
2023/06/05 00:02:32;;;;;;;2.42;1.13;;;;;;;;;;5056324;28;20036;-89
2023/06/05 00:05:01;;;;;;;1.50;1.00;;;;;;;;;;5050822;28;20096;-86
2023/06/05 00:07:29;;;;;;;1.98;1.10;;;;;;;;;;5065437;28;20082;-85
2023/06/05 00:09:54;;;;;;;2.05;1.35;;;;;;;;;;5064748;28;20098;-86
2023/06/05 00:12:22;;;;;;;1.05;0.90;;;;;;;;;;5062473;28;20033;-85
2023/06/05 00:14:48;;;;;;;2.42;1.50;;;;;;;;;;5063497;28;20045;-86
2023/06/05 00:17:14;;;;;;;2.15;1.55;;;;;;;;;;5056384;28;20029;-85
2023/06/05 00:19:39;;;;;;;1.80;0.88;;;;;;;;;;5057485;28;20032;-85
2023/06/05 00:22:10;;;;;;;2.25;1.20;;;;;;;;;;5057598;28;20069;-84
2023/06/05 00:24:36;;;;;;;2.85;1.73;;;;;;;;;;5061608;28;20021;-86
2023/06/05 00:27:10;;;;;;;2.55;2.00;;;;;;;;;;5058298;28;20029;-85
2023/06/05 00:29:36;;;;;;;1.73;1.27;;;;;;;;;;5038148;28;20037;-83
2023/06/05 00:32:01;;;;;;;3.20;2.38;;;;;;;;;;5051843;28;20021;-87
2023/06/05 00:34:32;;;;;;;2.13;1.77;;;;;;;;;;5042991;28;20035;-86
2023/06/05 00:36:58;;;;;;;3.17;1.42;;;;;;;;;;5042984;28;20075;-86
2023/06/05 00:39:24;;;;;;;1.48;1.35;;;;;;;;;;5044566;28;20428;-87
2023/06/05 00:41:49;;;;;;;1.60;1.50;;;;;;;;;;5039671;28;20838;-85
2023/06/05 00:44:18;;;;;;;2.97;1.55;;;;;;;;;;5045021;28;20026;-85
2023/06/05 00:46:48;;;;;;;3.67;1.67;;;;;;;;;;5041102;28;20021;-85
2023/06/05 00:49:13;;;;;;;3.00;1.67;;;;;;;;;;5041114;28;20044;-88
2023/06/05 00:51:42;;;;;;;2.53;1.63;;;;;;;;;;5033239;28;20033;-85
2023/06/05 00:54:08;;;;;;;2.45;1.70;;;;;;;;;;5043498;28;20044;-84
2023/06/05 00:56:35;;;;;;;2.97;1.90;;;;;;;;;;5034341;28;20037;-85
2023/06/05 00:59:01;;;;;;;1.20;1.10;;;;;;;;;;5041844;28;20175;-84
2023/06/05 01:01:32;;;;;;;2.55;1.58;;;;;;;;;;5037635;28;20040;-84
2023/06/05 01:03:58;;;;;;;1.23;1.13;;;;;;;;;;5045047;28;20024;-86
2023/06/05 01:06:26;;;;;;;1.60;1.20;;;;;;;;;;5041254;28;20033;-84
2023/06/05 01:08:53;;;;;;;3.17;1.48;;;;;;;;;;5039316;28;20515;-86
2023/06/05 01:11:56;;;;;;;1.98;1.42;;;;;;;;;;5034507;28;20037;-85
2023/06/05 01:14:22;;;;;;;5.70;1.90;;;;;;;;;;5044192;28;20175;-86
2023/06/05 01:16:55;;;;;;;1.75;1.52;;;;;;;;;;5048337;28;20047;-85
2023/06/05 01:19:28;;;;;;;2.45;1.45;;;;;;;;;;5039989;28;20021;-85
2023/06/05 01:21:57;;;;;;;4.55;2.80;;;;;;;;;;5038857;28;20470;-86
2023/06/05 01:24:25;;;;;;;2.60;2.10;;;;;;;;;;5034935;28;20025;-87
2023/06/05 01:27:07;;;;;;;3.63;2.30;;;;;;;;;;5042271;28;20490;-86
2023/06/05 01:30:13;;;;;;;1.70;1.25;;;;;;;;;;5057948;28;20055;-85
2023/06/05 01:32:44;;;;;;;3.95;1.80;;;;;;;;;;5050247;28;20037;-83
2023/06/05 01:35:16;;;;;;;2.45;1.48;;;;;;;;;;5064088;28;20032;-86
2023/06/05 01:37:46;;;;;;;3.72;1.88;;;;;;;;;;5065575;28;20037;-83
2023/06/05 01:40:15;;;;;;;1.42;1.27;;;;;;;;;;5063483;28;20013;-84
2023/06/05 01:42:42;;;;;;;3.33;2.38;;;;;;;;;;5061320;28;20047;-83
2023/06/05 01:45:09;;;;;;;3.80;1.85;;;;;;;;;;5052912;28;20044;-85
2023/06/05 01:47:41;;;;;;;2.97;2.03;;;;;;;;;;5056556;28;20037;-87
2023/06/05 01:50:12;;;;;;;2.15;1.90;;;;;;;;;;5057944;28;20099;-86
2023/06/05 01:52:49;;;;;;;1.75;1.52;;;;;;;;;;5055518;28;20047;-84
2023/06/05 01:55:23;;;;;;;2.38;1.67;;;;;;;;;;5061132;28;20061;-85
2023/06/05 01:57:52;;;;;;;1.27;0.95;;;;;;;;;;5047804;28;20036;-85
2023/06/05 02:00:17;;;;;;;4.95;1.92;;;;;;;;;;5057300;28;20033;-85
2023/06/05 02:02:45;;;;;;;4.03;1.73;;;;;;;;;;5060739;28;20032;-84
2023/06/05 02:05:12;;;;;;;2.38;1.55;;;;;;;;;;5055977;28;20071;-85
2023/06/05 02:07:47;;;;;;;3.38;1.92;;;;;;;;;;5064216;28;20029;-85
2023/06/05 02:10:15;;;;;;;1.50;1.40;;;;;;;;;;5062539;28;20090;-84
2023/06/05 02:12:44;;;;;;;4.47;2.55;;;;;;;;;;5061296;28;20493;-85
2023/06/05 02:15:12;;;;;;;7.32;1.67;;;;;;;;;;5056459;28;20381;-84
2023/06/05 02:17:44;;;;;;;6.22;2.40;;;;;;;;;;5057206;28;20854;-86
2023/06/05 02:20:25;;;;;;;;;;;;;;;;;;;;;
2023/06/05 02:22:51;;;;;;;3.08;1.98;;;;;;;;;;5059672;28;20481;-85
2023/06/05 02:25:25;;;;;;;3.17;1.88;;;;;;;;;;5061473;28;20037;-85
2023/06/05 02:27:54;;;;;;;3.85;2.10;;;;;;;;;;5057055;28;20052;-84
2023/06/05 02:30:20;;;;;;;4.65;2.30;;;;;;;;;;5053842;28;20036;-85
2023/06/05 02:32:49;;;;;;;3.80;1.30;;;;;;;;;;5066302;28;20493;-86
2023/06/05 02:35:14;;;;;;;2.33;1.92;;;;;;;;;;5074317;28;20056;-85
2023/06/05 02:37:44;;;;;;;2.35;1.60;;;;;;;;;;5064430;28;20044;-86
2023/06/05 02:40:13;;;;;;;3.70;1.63;;;;;;;;;;5062093;28;20029;-86
2023/06/05 02:42:40;;;;;;;1.83;1.40;;;;;;;;;;5078377;28;20035;-86
2023/06/05 02:45:09;;;;;;;2.00;1.58;;;;;;;;;;5058386;28;20108;-85
2023/06/05 02:47:38;;;;;;;1.52;1.33;;;;;;;;;;5062221;28;20071;-86
2023/06/05 02:50:06;;;;;;;1.10;1.00;;;;;;;;;;5061896;28;20381;-86
2023/06/05 02:52:34;;;;;;;3.85;1.75;;;;;;;;;;5067543;28;20130;-84
2023/06/05 02:55:05;;;;;;;3.00;1.45;;;;;;;;;;5062520;28;20033;-84
2023/06/05 02:57:35;;;;;;;1.25;0.88;;;;;;;;;;5059863;28;20039;-84
2023/06/05 03:00:07;;;;;;;1.98;0.90;;;;;;;;;;5061669;28;20076;-86
2023/06/05 03:02:36;;;;;;;2.35;1.35;;;;;;;;;;5066460;28;20049;-85
2023/06/05 03:05:08;;;;;;;1.37;1.20;;;;;;;;;;5060813;28;20440;-84
2023/06/05 03:07:37;;;;;;;2.25;1.38;;;;;;;;;;5065291;28;21104;-83
2023/06/05 03:10:11;;;;;;;2.95;1.67;;;;;;;;;;5061852;28;20026;-83
2023/06/05 03:12:40;;;;;;;2.17;1.85;;;;;;;;;;5063624;28;20400;-85
2023/06/05 03:15:07;;;;;;;1.70;1.27;;;;;;;;;;5061738;28;20073;-85
2023/06/05 03:17:33;;;;;;;3.60;1.35;;;;;;;;;;5061476;28;20021;-88
2023/06/05 03:19:58;;;;;;;2.35;1.35;;;;;;;;;;5065528;28;20047;-88
2023/06/05 03:22:27;;;;;;;2.42;1.52;;;;;;;;;;5066796;28;20037;-86
2023/06/05 03:24:53;;;;;;;5.47;1.88;;;;;;;;;;5065337;28;20040;-86
2023/06/05 03:27:21;;;;;;;2.22;1.35;;;;;;;;;;5069333;28;20496;-86
2023/06/05 03:29:47;;;;;;;1.65;1.55;;;;;;;;;;5059919;28;20131;-86
2023/06/05 03:32:16;;;;;;;2.65;1.67;;;;;;;;;;5055455;28;20051;-85
2023/06/05 03:34:42;;;;;;;2.42;1.30;;;;;;;;;;5061584;28;20491;-85
2023/06/05 03:37:08;;;;;;;1.30;1.10;;;;;;;;;;5055069;28;20115;-85
2023/06/05 03:39:34;;;;;;;2.35;1.60;;;;;;;;;;5057182;28;20043;-84
2023/06/05 03:42:00;;;;;;;3.30;1.75;;;;;;;;;;5060488;28;20747;-85
2023/06/05 03:44:29;;;;;;;1.60;1.48;;;;;;;;;;5063157;28;20021;-85
2023/06/05 03:46:55;;;;;;;6.13;2.77;;;;;;;;;;5060819;28;20055;-85
2023/06/05 03:49:22;;;;;;;4.03;2.28;;;;;;;;;;5058948;28;20040;-86
2023/06/05 03:52:02;;;;;;;3.50;2.75;;;;;;;;;;5056577;28;20579;-85
2023/06/05 03:54:32;;;;;;;;;;;;;;;;;;5062304;28;20041;-85
2023/06/05 03:57:02;;;;;;;4.95;3.17;;;;;;;;;;5064787;28;19916;-85
2023/06/05 03:59:28;;;;;;;6.10;3.00;;;;;;;;;;5060312;28;20028;-85
2023/06/05 04:01:55;;;;;;;3.55;1.98;;;;;;;;;;5060334;28;20063;-84
2023/06/05 04:04:22;;;;;;;16.45;4.22;;;;;;;;;;5063902;28;20111;-85
2023/06/05 04:06:57;;;;;;;4.43;2.33;;;;;;;;;;5058264;28;20036;-86
2023/06/05 04:09:26;;;;;;;4.50;3.08;;;;;;;;;;5055689;28;20032;-86
2023/06/05 04:11:54;;;;;;;4.10;2.67;;;;;;;;;;5057057;28;20104;-84
2023/06/05 04:14:20;;;;;;;5.45;2.70;;;;;;;;;;5056657;28;20028;-84
2023/06/05 04:16:46;;;;;;;5.05;3.28;;;;;;;;;;5058385;28;20043;-85
2023/06/05 04:19:12;;;;;;;3.75;3.00;;;;;;;;;;5054405;28;20017;-85
2023/06/05 04:21:39;;;;;;;2.47;2.28;;;;;;;;;;5058715;28;20072;-83
2023/06/05 04:24:07;;;;;;;3.03;2.45;;;;;;;;;;5050962;28;20028;-84
2023/06/05 04:26:34;;;;;;;4.25;2.70;;;;;;;;;;5057835;28;20032;-81
2023/06/05 04:29:02;;;;;;;3.67;2.53;;;;;;;;;;5044014;28;20046;-81
2023/06/05 04:31:30;;;;;;;3.78;2.88;;;;;;;;;;5050491;28;20025;-80
2023/06/05 04:33:56;;;;;;;2.88;2.03;;;;;;;;;;5055647;28;20031;-84
2023/06/05 04:36:22;;;;;;;6.25;3.22;;;;;;;;;;5053705;28;20120;-83
2023/06/05 04:38:47;;;;;;;12.18;3.40;;;;;;;;;;5050972;28;20115;-82
2023/06/05 04:41:13;;;;;;;4.22;2.53;;;;;;;;;;5054903;28;20025;-84
2023/06/05 04:43:39;;;;;;;6.28;3.10;;;;;;;;;;5060135;28;20025;-85
2023/06/05 04:46:05;;;;;;;4.85;3.17;;;;;;;;;;5053853;28;20020;-84
2023/06/05 04:48:30;;;;;;;11.95;3.67;;;;;;;;;;5056681;28;20479;-83
2023/06/05 04:50:57;;;;;;;3.63;2.70;;;;;;;;;;5064769;28;20030;-84
2023/06/05 04:53:24;;;;;;;3.55;2.45;;;;;;;;;;5057751;28;20017;-82
2023/06/05 04:55:49;;;;;;;3.72;2.30;;;;;;;;;;5057333;28;20047;-83
2023/06/05 04:58:19;;;;;;;7.93;3.50;;;;;;;;;;5057554;28;20436;-87
2023/06/05 05:00:45;;;;;;;;;;;;;;;;;;5054876;28;20029;-84
2023/06/05 05:03:13;;;;;;;3.53;2.80;;;;;;;;;;5048909;28;19958;-86
2023/06/05 05:05:39;;;;;;;3.40;2.60;;;;;;;;;;5069127;28;20032;-84
2023/06/05 05:08:05;;;;;;;6.05;3.70;;;;;;;;;;5051394;28;20064;-85
2023/06/05 05:10:31;;;;;;;4.32;3.08;;;;;;;;;;5048821;28;20048;-85
2023/06/05 05:13:00;;;;;;;6.50;3.88;;;;;;;;;;5055324;28;20024;-89
2023/06/05 05:15:26;;;;;;;5.17;3.60;;;;;;;;;;5059289;28;20043;-83
2023/06/05 05:17:52;;;;;;;6.65;3.05;;;;;;;;;;5053225;28;20825;-85
2023/06/05 05:20:18;;;;;;;5.40;3.50;;;;;;;;;;5058441;28;20028;-84
2023/06/05 05:22:45;;;;;;;4.47;3.17;;;;;;;;;;5057782;28;20032;-87
2023/06/05 05:25:10;;;;;;;5.95;2.95;;;;;;;;;;5060206;28;20024;-88
2023/06/05 05:27:36;;;;;;;5.53;2.78;;;;;;;;;;5058702;28;20174;-87
2023/06/05 05:30:02;;;;;;;4.68;3.22;;;;;;;;;;5058248;28;20108;-87
2023/06/05 05:32:28;;;;;;;6.35;3.67;;;;;;;;;;5057566;28;20040;-85
2023/06/05 05:34:53;;;;;;;6.88;3.70;;;;;;;;;;5054884;28;21401;-87
2023/06/05 05:37:19;;;;;;;11.18;3.15;;;;;;;;;;5051501;28;20023;-85
2023/06/05 05:39:44;;;;;;;6.68;4.50;;;;;;;;;;5060042;28;20044;-86
2023/06/05 05:42:10;;;;;;;4.15;2.30;;;;;;;;;;5051583;28;20467;-88
2023/06/05 05:44:41;;;;;;;3.38;2.35;;;;;;;;;;5053416;28;20039;-87
2023/06/05 05:47:07;;;;;;;4.00;2.33;;;;;;;;;;5056404;28;20071;-92
2023/06/05 05:49:32;;;;;;;6.97;3.22;;;;;;;;;;5056996;28;20044;-87
2023/06/05 05:51:58;;;;;;;4.80;3.20;;;;;;;;;;5064129;28;20033;-86
2023/06/05 05:54:26;;;;;;;4.72;3.38;;;;;;;;;;5055962;28;20028;-90
2023/06/05 05:56:53;;;;;;;4.57;2.60;;;;;;;;;;5055585;28;20483;-85
2023/06/05 05:59:19;;;;;;;6.63;3.38;;;;;;;;;;5061487;28;20033;-87
2023/06/05 06:01:45;;;;;;;4.55;2.88;;;;;;;;;;5056115;28;20020;-88
2023/06/05 06:04:11;;;;;;;4.53;3.13;;;;;;;;;;5052117;28;20035;-86
2023/06/05 06:06:39;;;;;;;3.15;2.35;;;;;;;;;;5060476;28;20463;-85
2023/06/05 06:09:07;;;;;;;6.95;3.00;;;;;;;;;;5051858;28;20025;-87
2023/06/05 06:11:33;;;;;;;6.60;3.83;;;;;;;;;;5053252;28;20024;-88
2023/06/05 06:13:59;;;;;;;5.15;2.97;;;;;;;;;;5058502;28;20025;-88
2023/06/05 06:16:25;;;;;;;4.38;2.78;;;;;;;;;;5057966;28;20037;-85
2023/06/05 06:18:50;;;;;;;6.00;3.15;;;;;;;;;;5056172;28;20381;-89
2023/06/05 06:21:16;;;;;;;3.38;2.47;;;;;;;;;;5059732;28;20029;-87
2023/06/05 06:23:42;;;;;;;3.65;2.65;;;;;;;;;;5055383;28;20491;-88
2023/06/05 06:26:07;;;;;;;4.05;2.63;;;;;;;;;;5056165;28;20406;-88
2023/06/05 06:28:33;;;;;;;5.13;2.55;;;;;;;;;;5054576;28;20048;-86
2023/06/05 06:30:58;;;;;;;4.68;3.03;;;;;;;;;;5054555;28;20032;-84
2023/06/05 06:33:24;;;;;;;4.45;2.55;;;;;;;;;;5059307;28;20086;-85
2023/06/05 06:35:49;;;;;;;3.35;2.65;;;;;;;;;;5048407;28;20021;-80
2023/06/05 06:38:16;;;;;;;2.70;2.20;;;;;;;;;;5056520;28;20029;-84
2023/06/05 06:40:42;;;;;;;4.75;2.80;;;;;;;;;;5050235;28;20025;-83
2023/06/05 06:43:07;;;;;;;4.18;2.85;;;;;;;;;;5049804;28;20098;-84
2023/06/05 06:45:33;;;;;;;4.68;3.05;;;;;;;;;;5053317;28;20028;-83
2023/06/05 06:47:58;;;;;;;3.58;2.25;;;;;;;;;;5059001;28;20020;-84
2023/06/05 06:50:24;;;;;;;3.33;1.95;;;;;;;;;;5056020;28;20032;-84
2023/06/05 06:52:50;;;;;;;4.00;2.67;;;;;;;;;;5057937;28;20787;-84
2023/06/05 06:55:15;;;;;;;4.68;2.85;;;;;;;;;;5057780;28;20449;-82
2023/06/05 06:57:41;;;;;;;3.55;2.72;;;;;;;;;;5047760;28;20068;-83
2023/06/05 07:00:09;;;;;;;2.55;1.77;;;;;;;;;;5054920;28;20021;-85
2023/06/05 07:02:36;;;;;;;5.75;2.85;;;;;;;;;;5053329;28;20029;-83
2023/06/05 07:05:02;;;;;;;3.85;2.75;;;;;;;;;;5057541;28;20093;-84
2023/06/05 07:07:27;;;;;;;3.00;1.95;;;;;;;;;;5056852;28;20453;-84
2023/06/05 07:09:53;;;;;;;3.28;2.45;;;;;;;;;;5053662;28;20499;-81
2023/06/05 07:12:20;;;;;;;2.95;2.00;;;;;;;;;;5058948;28;20081;-83
2023/06/05 07:14:46;;;;;;;4.57;2.63;;;;;;;;;;5061824;28;20136;-84
2023/06/05 07:17:11;;;;;;;4.00;2.63;;;;;;;;;;5060179;28;20448;-84
2023/06/05 07:19:37;;;;;;;5.93;3.38;;;;;;;;;;5058347;28;20028;-82
2023/06/05 07:22:04;;;;;;;4.90;3.00;;;;;;;;;;5064070;28;20017;-81
2023/06/05 07:24:30;;;;;;;3.58;2.28;;;;;;;;;;5053419;28;20028;-82
2023/06/05 07:26:57;;;;;;;4.72;3.08;;;;;;;;;;5059428;28;20041;-84
2023/06/05 07:29:24;;;;;;;3.90;2.13;;;;;;;;;;5059078;28;21051;-86
2023/06/05 07:31:50;;;;;;;3.83;2.28;;;;;;;;;;5060672;28;20500;-82
2023/06/05 07:34:17;;;;;;;4.97;2.45;;;;;;;;;;5056089;28;20467;-84
2023/06/05 07:36:45;;;;;;;4.90;2.97;;;;;;;;;;5061197;28;20433;-83
2023/06/05 07:39:11;;;;;;;4.22;2.67;;;;;;;;;;5063524;28;20058;-84
2023/06/05 07:41:37;;;;;;;3.17;2.53;;;;;;;;;;5057465;28;20037;-81
2023/06/05 07:44:03;;;;;;;4.78;2.78;;;;;;;;;;5059798;28;20030;-81
2023/06/05 07:46:28;;;;;;;3.00;1.92;;;;;;;;;;5060002;28;20099;-82
2023/06/05 07:48:54;;;;;;;1.95;1.40;;;;;;;;;;5058559;28;20028;-83
2023/06/05 07:51:20;;;;;;;3.13;2.15;;;;;;;;;;5059338;28;20086;-82
2023/06/05 07:53:45;;;;;;;2.38;1.27;;;;;;;;;;5066228;28;20548;-83
2023/06/05 07:56:16;;;;;;;4.30;2.30;;;;;;;;;;5056910;28;20108;-83
2023/06/05 07:58:42;;;;;;;5.38;1.55;;;;;;;;;;5058397;28;20111;-83
2023/06/05 08:01:08;;;;;;;3.42;1.90;;;;;;;;;;5049464;28;20155;-84
2023/06/05 08:03:33;;;;;;;4.50;2.20;;;;;;;;;;5054498;28;20039;-82
2023/06/05 08:05:59;;;;;;;2.78;1.85;;;;;;;;;;5057846;28;20091;-83
2023/06/05 08:08:25;;;;;;;4.63;2.30;;;;;;;;;;5052161;28;20424;-83
2023/06/05 08:10:51;;;;;;;4.90;2.40;;;;;;;;;;5063260;28;20434;-82
2023/06/05 08:13:16;;;;;;;2.83;1.80;;;;;;;;;;5056747;28;20392;-83
2023/06/05 08:15:42;;;;;;;3.17;1.85;;;;;;;;;;5055545;28;20025;-84
2023/06/05 08:18:08;;;;;;;2.88;1.63;;;;;;;;;;5059999;28;20392;-83
2023/06/05 08:20:33;;;;;;;3.22;1.88;;;;;;;;;;5055621;28;20063;-80
2023/06/05 08:23:00;;;;;;;3.10;2.28;;;;;;;;;;5058657;28;20024;-83
2023/06/05 08:25:26;;;;;;;5.53;3.15;;;;;;;;;;5054271;28;20037;-83
2023/06/05 08:27:52;;;;;;;7.03;2.70;;;;;;;;;;5061099;28;20048;-81
2023/06/05 08:30:18;;;;;;;3.58;2.33;;;;;;;;;;5047520;28;20072;-82
2023/06/05 08:32:44;;;;;;;4.18;2.22;;;;;;;;;;5055443;28;20031;-83
2023/06/05 08:35:12;;;;;;;4.68;2.90;;;;;;;;;;5056587;28;20385;-84
2023/06/05 08:37:38;;;;;;;4.45;2.83;;;;;;;;;;5048256;28;20587;-84
2023/06/05 08:40:10;;;;;;;4.47;2.97;;;;;;;;;;5063511;28;20071;-84
2023/06/05 08:42:38;;;;;;;4.25;2.85;;;;;;;;;;5053027;28;20435;-82
2023/06/05 08:45:08;;;;;;;4.17;2.83;;;;;;;;;;5058436;28;20154;-83
2023/06/05 08:47:37;;;;;;;3.55;2.45;;;;;;;;;;5060235;28;20029;-81
2023/06/05 08:50:05;;;;;;;3.35;2.17;;;;;;;;;;5067163;28;20067;-82
2023/06/05 08:52:34;;;;;;;3.50;2.10;;;;;;;;;;5048779;28;20052;-83
2023/06/05 08:55:00;;;;;;;4.57;2.70;;;;;;;;;;5048504;28;20098;-82
2023/06/05 08:57:27;;;;;;;3.75;2.30;;;;;;;;;;5065521;28;20036;-83
2023/06/05 08:59:53;;;;;;;3.72;2.65;;;;;;;;;;5052673;28;20053;-83
2023/06/05 09:02:19;;;;;;;3.58;2.33;;;;;;;;;;5051879;28;20113;-82
2023/06/05 09:04:44;;;;;;;4.32;2.83;;;;;;;;;;5061880;28;20166;-81
2023/06/05 09:07:11;;;;;;;4.20;2.55;;;;;;;;;;5058924;28;20025;-80
2023/06/05 09:09:37;;;;;;;4.28;2.95;;;;;;;;;;5049170;28;20025;-82
2023/06/05 09:12:07;;;;;;;4.32;2.08;;;;;;;;;;5052326;28;20031;-81
2023/06/05 09:14:33;;;;;;;6.35;2.80;;;;;;;;;;5050842;28;20029;-83
2023/06/05 09:17:02;;;;;;;4.78;2.67;;;;;;;;;;5052716;28;20033;-82
2023/06/05 09:19:39;;;;;;;3.72;2.45;;;;;;;;;;5050306;28;20029;-82
2023/06/05 09:22:07;;;;;;;5.90;3.67;;;;;;;;;;5063056;28;20468;-81
2023/06/05 09:24:33;;;;;;;3.00;2.13;;;;;;;;;;5051978;28;20440;-83
2023/06/05 09:27:04;;;;;;;3.92;2.70;;;;;;;;;;5051404;28;20025;-82
2023/06/05 09:29:39;;;;;;;4.82;3.20;;;;;;;;;;5063700;28;20048;-83
2023/06/05 09:32:15;;;;;;;4.88;2.75;;;;;;;;;;5059275;28;20099;-81
2023/06/05 09:34:40;;;;;;;5.72;3.92;;;;;;;;;;5052663;28;20021;-81
2023/06/05 09:37:10;;;;;;;3.17;2.83;;;;;;;;;;5054120;28;20035;-82
2023/06/05 09:39:37;;;;;;;2.53;2.00;;;;;;;;;;5064303;28;20107;-83
2023/06/05 09:42:04;;;;;;;2.78;1.63;;;;;;;;;;5057369;28;20028;-81
2023/06/05 09:44:31;;;;;;;4.80;2.83;;;;;;;;;;5055316;28;20115;-83
2023/06/05 09:47:05;;;;;;;4.90;2.53;;;;;;;;;;5053840;28;20099;-82
2023/06/05 09:49:41;;;;;;;5.72;2.72;;;;;;;;;;5050736;28;20104;-82
2023/06/05 09:52:12;;;;;;;6.85;3.05;;;;;;;;;;5044762;28;20029;-80
2023/06/05 09:54:41;;;;;;;6.38;3.20;;;;;;;;;;5058539;28;20051;-80
2023/06/05 09:57:11;;;;;;;4.32;2.33;;;;;;;;;;5056027;28;20029;-80
2023/06/05 09:59:55;;;;;;;4.93;3.25;;;;;;;;;;5051275;28;20445;-83
2023/06/05 10:02:25;;;;;;;4.43;2.38;;;;;;;;;;5053474;28;20033;-82
2023/06/05 10:05:08;;;;;;;5.15;3.55;;;;;;;;;;5045137;28;20064;-83
2023/06/05 10:07:36;;;;;;;5.43;2.85;;;;;;;;;;5052629;28;20034;-83
2023/06/05 10:10:02;;;;;;;6.10;3.35;;;;;;;;;;5054255;28;20035;-82
2023/06/05 10:12:30;;;;;;;5.03;3.40;;;;;;;;;;5052460;28;20078;-83
2023/06/05 10:14:57;;;;;;;4.53;3.00;;;;;;;;;;5054281;28;20030;-84
2023/06/05 10:17:26;;;;;;;4.38;2.58;;;;;;;;;;5056398;28;20048;-82
2023/06/05 10:19:52;;;;;;;3.83;2.75;;;;;;;;;;5052944;28;20021;-83
2023/06/05 10:22:19;;;;;;;2.97;2.03;;;;;;;;;;5051472;28;20040;-82
2023/06/05 10:24:48;;;;;;;3.97;2.95;;;;;;;;;;5050699;28;20108;-82
2023/06/05 10:27:42;;;;;;;5.95;2.85;;;;;;;;;;5049080;28;20115;-82
2023/06/05 10:30:20;;;;;;;3.88;2.60;;;;;;;;;;5051422;28;20025;-83
2023/06/05 10:33:22;;;;;;;5.68;3.30;;;;;;;;;;5057272;28;20025;-83
2023/06/05 10:36:00;;;;;;;5.55;3.15;;;;;;;;;;5054695;28;20119;-83
2023/06/05 10:38:27;;;;;;;3.25;2.60;;;;;;;;;;5053836;28;20432;-83
2023/06/05 10:40:55;;;;;;;3.45;1.95;;;;;;;;;;5051152;28;20024;-83
2023/06/05 10:43:35;;;;;;;2.88;2.17;;;;;;;;;;5052991;28;20032;-85
2023/06/05 10:46:21;;;;;;;4.78;2.65;;;;;;;;;;5056974;28;20060;-83
2023/06/05 10:49:09;;;;;;;3.88;2.30;;;;;;;;;;5054013;28;20078;-82
2023/06/05 10:51:46;;;;;;;3.72;2.67;;;;;;;;;;5047916;28;20452;-82
2023/06/05 10:54:38;;;;;;;4.75;2.65;;;;;;;;;;5051524;28;20025;-83
2023/06/05 10:57:09;;;;;;;3.50;2.72;;;;;;;;;;5050307;28;20044;-83
2023/06/05 10:59:37;;;;;;;4.15;2.65;;;;;;;;;;5050994;28;20063;-83
2023/06/05 11:02:19;;;;;;;4.10;2.42;;;;;;;;;;5053463;28;20009;-83
2023/06/05 11:04:47;;;;;;;2.90;2.30;;;;;;;;;;5056115;28;20124;-84
2023/06/05 11:07:18;;;;;;;2.63;1.88;;;;;;;;;;5056754;28;20415;-83
2023/06/05 11:10:02;;;;;;;2.25;1.83;;;;;;;;;;5055955;28;20049;-82
2023/06/05 11:12:50;;;;;;;3.25;2.03;;;;;;;;;;5051968;28;20541;-83
2023/06/05 11:15:22;;;;;;;1.42;1.27;;;;;;;;;;5059120;28;20465;-82
2023/06/05 11:17:47;;;;;;;2.60;1.55;;;;;;;;;;5057176;28;20033;-85
2023/06/05 11:20:26;;;;;;;2.13;1.52;;;;;;;;;;5051830;28;20029;-84
2023/06/05 11:23:11;;;;;;;2.83;1.90;;;;;;;;;;5056438;28;20453;-85
2023/06/05 11:25:38;;;;;;;2.05;1.20;;;;;;;;;;5059579;28;20055;-83
2023/06/05 11:28:07;;;;;;;1.95;1.40;;;;;;;;;;5054072;28;20123;-85
2023/06/05 11:30:40;;;;;;;2.15;1.30;;;;;;;;;;5052481;28;20025;-86
2023/06/05 11:33:13;;;;;;;2.50;1.60;;;;;;;;;;5059404;28;20043;-86
2023/06/05 11:35:39;;;;;;;8.02;2.10;;;;;;;;;;5057777;28;20468;-82
2023/06/05 11:38:17;;;;;;;2.17;1.83;;;;;;;;;;5053591;28;20470;-82
2023/06/05 11:40:44;;;;;;;2.17;1.40;;;;;;;;;;5053508;28;20418;-84
2023/06/05 11:43:11;;;;;;;3.60;1.85;;;;;;;;;;5056801;28;20035;-84
2023/06/05 11:45:39;;;;;;;3.15;1.50;;;;;;;;;;5052198;28;20040;-84
2023/06/05 11:48:12;;;;;;;1.80;1.20;;;;;;;;;;5056889;28;20033;-82
2023/06/05 11:50:39;;;;;;;3.40;1.38;;;;;;;;;;5062012;28;20041;-83
2023/06/05 11:53:10;;;;;;;2.75;1.40;;;;;;;;;;5055167;28;20040;-83
2023/06/05 11:58:29;;;;;;;2.63;1.88;;;;;;;;;;5057933;28;20021;-82
2023/06/05 12:01:05;;;;;;;3.08;2.03;;;;;;;;;;5051655;28;20025;-81
2023/06/05 12:03:32;;;;;;;2.60;1.70;;;;;;;;;;5054427;28;20035;-82
2023/06/05 12:05:57;;;;;;;2.08;1.58;;;;;;;;;;5054554;28;20036;-82
2023/06/05 12:08:28;;;;;;;2.75;1.73;;;;;;;;;;5056352;28;20032;-86
2023/06/05 12:10:56;;;;;;;1.77;1.63;;;;;;;;;;5056479;28;20067;-81
2023/06/05 12:13:22;;;;;;;2.25;1.60;;;;;;;;;;5052376;28;20473;-81
2023/06/05 12:16:00;;;;;;;2.38;1.50;;;;;;;;;;5051718;28;20512;-81
2023/06/05 12:18:33;;;;;;;2.95;1.52;;;;;;;;;;5060025;28;20038;-81
2023/06/05 12:20:59;;;;;;;1.85;1.20;;;;;;;;;;5050434;28;20021;-81
2023/06/05 12:23:25;;;;;;;2.97;1.73;;;;;;;;;;5056374;28;20030;-82
2023/06/05 12:26:03;;;;;;;4.20;2.15;;;;;;;;;;5051043;28;20459;-83
2023/06/05 12:28:31;;;;;;;1.65;1.05;;;;;;;;;;5062286;28;20041;-84
2023/06/05 12:30:57;;;;;;;2.90;1.52;;;;;;;;;;5056692;28;20666;-86
2023/06/05 12:33:24;;;;;;;2.72;1.83;;;;;;;;;;5058489;28;20106;-82
2023/06/05 12:36:03;;;;;;;2.40;1.63;;;;;;;;;;5049446;28;20029;-82
2023/06/05 12:38:28;;;;;;;3.53;2.17;;;;;;;;;;5058336;28;20043;-83
2023/06/05 12:40:54;;;;;;;2.83;1.73;;;;;;;;;;5059433;28;20769;-83
2023/06/05 12:43:19;;;;;;;2.30;1.67;;;;;;;;;;5060251;28;20036;-84
2023/06/05 12:45:45;;;;;;;2.38;1.63;;;;;;;;;;5056974;28;20476;-82
2023/06/05 12:48:12;;;;;;;1.42;1.00;;;;;;;;;;5050805;28;20033;-87
2023/06/05 12:50:39;;;;;;;2.80;1.50;;;;;;;;;;5055791;28;20024;-85
2023/06/05 12:53:04;;;;;;;3.08;2.05;;;;;;;;;;5062276;28;20024;-83
2023/06/05 12:55:31;;;;;;;1.13;0.95;;;;;;;;;;5066414;28;20028;-87
2023/06/05 12:57:56;;;;;;;2.22;1.35;;;;;;;;;;5055434;28;20025;-86
2023/06/05 13:00:22;;;;;;;1.65;1.38;;;;;;;;;;5057401;28;20050;-86
2023/06/05 13:02:48;;;;;;;2.10;1.45;;;;;;;;;;5050533;28;20025;-83
2023/06/05 13:05:14;;;;;;;1.80;1.30;;;;;;;;;;5055347;28;20032;-85
2023/06/05 13:07:40;;;;;;;2.47;1.42;;;;;;;;;;5057631;28;20052;-82
2023/06/05 13:10:06;;;;;;;2.05;1.45;;;;;;;;;;5054234;28;20063;-82
2023/06/05 13:12:32;;;;;;;2.05;1.50;;;;;;;;;;5056783;28;20029;-82
2023/06/05 13:14:57;;;;;;;2.72;1.75;;;;;;;;;;5059185;28;20032;-83
2023/06/05 13:17:23;;;;;;;2.78;1.50;;;;;;;;;;5059657;28;20025;-87
2023/06/05 13:19:49;;;;;;;1.80;1.10;;;;;;;;;;5061444;28;20078;-85
2023/06/05 13:22:15;;;;;;;1.67;1.13;;;;;;;;;;5047463;28;20025;-83
2023/06/05 13:24:40;;;;;;;1.52;1.20;;;;;;;;;;5063430;28;20098;-82
2023/06/05 13:27:06;;;;;;;2.05;1.20;;;;;;;;;;5054754;28;20037;-83
2023/06/05 13:29:31;;;;;;;2.10;1.45;;;;;;;;;;5058691;28;20079;-83
2023/06/05 13:31:57;;;;;;;1.83;1.13;;;;;;;;;;5043059;28;20492;-83
2023/06/05 13:34:23;;;;;;;2.10;1.30;;;;;;;;;;5051585;28;20060;-84
2023/06/05 13:36:49;;;;;;;2.40;1.60;;;;;;;;;;5048305;28;20024;-83
2023/06/05 13:39:14;;;;;;;2.25;1.45;;;;;;;;;;5046067;28;20033;-83
2023/06/05 13:41:40;;;;;;;2.17;1.80;;;;;;;;;;5054264;28;20044;-83
2023/06/05 13:44:05;;;;;;;2.80;1.63;;;;;;;;;;5054901;28;20484;-84
2023/06/05 13:46:31;;;;;;;2.22;1.35;;;;;;;;;;5056319;28;20040;-85
2023/06/05 13:48:59;;;;;;;2.28;1.33;;;;;;;;;;5051689;28;20029;-85
2023/06/05 13:51:25;;;;;;;2.75;1.27;;;;;;;;;;5051064;28;20025;-83
2023/06/05 13:53:51;;;;;;;2.90;1.70;;;;;;;;;;5054327;28;20032;-83
2023/06/05 13:56:16;;;;;;;2.15;1.45;;;;;;;;;;5046655;28;20029;-84
2023/06/05 13:58:45;;;;;;;2.03;1.77;;;;;;;;;;5058939;28;20067;-84
2023/06/05 14:01:10;;;;;;;2.92;1.70;;;;;;;;;;5053183;28;20025;-84
2023/06/05 14:03:35;;;;;;;6.00;2.08;;;;;;;;;;5057950;28;20547;-84
2023/06/05 14:06:01;;;;;;;4.05;1.88;;;;;;;;;;5052139;28;20389;-84
2023/06/05 14:08:27;;;;;;;2.60;1.60;;;;;;;;;;5052333;28;20025;-85
2023/06/05 14:10:53;;;;;;;4.57;1.55;;;;;;;;;;5054470;28;20078;-84
2023/06/05 14:13:18;;;;;;;4.25;1.77;;;;;;;;;;5052808;28;20037;-85
2023/06/05 14:15:44;;;;;;;1.95;1.40;;;;;;;;;;5052790;28;20025;-85
2023/06/05 14:18:09;;;;;;;2.05;1.50;;;;;;;;;;5057416;28;20035;-84
2023/06/05 14:20:35;;;;;;;2.83;1.95;;;;;;;;;;5061326;28;20430;-84
2023/06/05 14:23:01;;;;;;;1.42;1.33;;;;;;;;;;5054473;28;20048;-84
2023/06/05 14:25:28;;;;;;;2.17;1.48;;;;;;;;;;5060846;28;20021;-87
2023/06/05 14:27:57;;;;;;;3.22;2.15;;;;;;;;;;5057443;28;20080;-85
2023/06/05 14:30:23;;;;;;;1.70;1.35;;;;;;;;;;5059598;28;20033;-87
2023/06/05 14:32:48;;;;;;;5.97;2.20;;;;;;;;;;5051370;28;20095;-86
2023/06/05 14:35:15;;;;;;;2.55;1.92;;;;;;;;;;5059045;28;20025;-86
2023/06/05 14:37:42;;;;;;;3.15;2.13;;;;;;;;;;5057645;28;20025;-86
2023/06/05 14:40:08;;;;;;;2.80;1.83;;;;;;;;;;5062258;28;20488;-85
2023/06/05 14:42:33;;;;;;;2.20;1.65;;;;;;;;;;5055057;28;20066;-86
2023/06/05 14:44:59;;;;;;;2.25;1.58;;;;;;;;;;5059077;28;20044;-87
2023/06/05 14:47:24;;;;;;;2.17;1.73;;;;;;;;;;5058501;28;20043;-86
2023/06/05 14:49:50;;;;;;;3.00;2.17;;;;;;;;;;5056838;28;20032;-85
2023/06/05 14:52:15;;;;;;;2.38;1.70;;;;;;;;;;5057860;28;20037;-85
2023/06/05 14:54:41;;;;;;;1.77;1.30;;;;;;;;;;5055944;28;20037;-85